M19

Newport Regional Airport

Newport, Arkansas, USA
METAR KM19 221556Z AUTO 03007KT 10SM 04/04 A3040 RMK AO2 SLP303 T00440039 $
Observed Flight Rules
Feb-22 @ 15:56 UTC (16 minutes ago)
Wind Visibility
30° at 7 knots 10 miles
Temperatures Readings
Current 4°C / 39°F
Dewpoint 4°C / 39°F
Humidity 100%
Altimeter 30.4" Hg
Pressure 1030.3 hPa
Elevation 73
METAR KM19 221556Z AUTO 03007KT 10SM 04/04 A3040 RMK AO2 SLP303 T00440039 $
Observed Flight Rules
Feb-22 @ 15:56 UTC
(16 minutes ago)
Wind Visibility
30° at 7 knots 10 miles
Temperature Dewpoint
4°C / 39°F 4°C / 39°F
Humidity Altimeter Pressure
100% 30.4" Hg 1030.3 hPa